sensor_id;sensor_type;location;lat;lon;timestamp;P1;durP1;ratioP1;P2;durP2;ratioP2
1296;SDS011;641;48.492;9.184;2024-01-10T00:01:41;35.20;;;16.37;;
1296;SDS011;641;48.492;9.184;2024-01-10T00:04:06;38.27;;;16.43;;
1296;SDS011;641;48.492;9.184;2024-01-10T00:06:32;32.30;;;15.70;;
1296;SDS011;641;48.492;9.184;2024-01-10T00:08:58;44.67;;;15.50;;
1296;SDS011;641;48.492;9.184;2024-01-10T00:11:23;34.70;;;14.53;;
1296;SDS011;641;48.492;9.184;2024-01-10T00:13:49;28.70;;;15.53;;
1296;SDS011;641;48.492;9.184;2024-01-10T00:16:14;35.73;;;13.60;;
1296;SDS011;641;48.492;9.184;2024-01-10T00:18:40;39.00;;;16.63;;
1296;SDS011;641;48.492;9.184;2024-01-10T00:21:06;35.80;;;14.90;;
1296;SDS011;641;48.492;9.184;2024-01-10T00:23:32;30.38;;;13.60;;
1296;SDS011;641;48.492;9.184;2024-01-10T00:25:58;44.23;;;17.50;;
1296;SDS011;641;48.492;9.184;2024-01-10T00:28:23;36.07;;;16.30;;
1296;SDS011;641;48.492;9.184;2024-01-10T00:30:50;34.72;;;18.20;;
1296;SDS011;641;48.492;9.184;2024-01-10T00:33:15;35.17;;;16.73;;
1296;SDS011;641;48.492;9.184;2024-01-10T00:35:41;41.57;;;17.10;;
1296;SDS011;641;48.492;9.184;2024-01-10T00:38:06;27.33;;;13.53;;
1296;SDS011;641;48.492;9.184;2024-01-10T00:40:32;37.40;;;15.53;;
1296;SDS011;641;48.492;9.184;2024-01-10T00:42:57;34.23;;;15.50;;
1296;SDS011;641;48.492;9.184;2024-01-10T00:45:23;32.77;;;16.10;;
1296;SDS011;641;48.492;9.184;2024-01-10T00:47:49;36.93;;;16.50;;
1296;SDS011;641;48.492;9.184;2024-01-10T00:50:15;34.27;;;15.70;;
1296;SDS011;641;48.492;9.184;2024-01-10T00:52:41;63.35;;;17.38;;
1296;SDS011;641;48.492;9.184;2024-01-10T00:55:07;28.07;;;14.53;;
1296;SDS011;641;48.492;9.184;2024-01-10T00:57:33;36.40;;;16.43;;
1296;SDS011;641;48.492;9.184;2024-01-10T00:59:59;29.63;;;15.50;;
1296;SDS011;641;48.492;9.184;2024-01-10T01:02:24;30.67;;;15.20;;
1296;SDS011;641;48.492;9.184;2024-01-10T01:04:50;40.17;;;17.77;;
1296;SDS011;641;48.492;9.184;2024-01-10T01:07:15;35.93;;;18.83;;
1296;SDS011;641;48.492;9.184;2024-01-10T01:09:41;31.57;;;15.57;;
1296;SDS011;641;48.492;9.184;2024-01-10T01:12:06;30.77;;;14.90;;
1296;SDS011;641;48.492;9.184;2024-01-10T01:14:32;39.13;;;16.37;;
1296;SDS011;641;48.492;9.184;2024-01-10T01:16:57;39.80;;;17.90;;
1296;SDS011;641;48.492;9.184;2024-01-10T01:19:23;38.20;;;17.17;;
1296;SDS011;641;48.492;9.184;2024-01-10T01:21:48;44.10;;;17.13;;
1296;SDS011;641;48.492;9.184;2024-01-10T01:24:14;34.37;;;15.57;;
1296;SDS011;641;48.492;9.184;2024-01-10T01:26:39;38.90;;;15.63;;
1296;SDS011;641;48.492;9.184;2024-01-10T01:29:05;32.67;;;15.13;;
1296;SDS011;641;48.492;9.184;2024-01-10T01:31:31;34.10;;;15.73;;
1296;SDS011;641;48.492;9.184;2024-01-10T01:33:56;27.77;;;15.00;;
1296;SDS011;641;48.492;9.184;2024-01-10T01:36:22;40.03;;;17.87;;
1296;SDS011;641;48.492;9.184;2024-01-10T01:38:48;41.87;;;18.73;;
1296;SDS011;641;48.492;9.184;2024-01-10T01:41:13;41.57;;;16.37;;
1296;SDS011;641;48.492;9.184;2024-01-10T01:43:40;29.88;;;14.40;;
1296;SDS011;641;48.492;9.184;2024-01-10T01:46:05;41.97;;;15.67;;
1296;SDS011;641;48.492;9.184;2024-01-10T01:48:32;34.03;;;14.70;;
1296;SDS011;641;48.492;9.184;2024-01-10T01:51:00;41.30;;;17.70;;
1296;SDS011;641;48.492;9.184;2024-01-10T01:53:27;37.28;;;17.92;;
1296;SDS011;641;48.492;9.184;2024-01-10T01:55:56;32.85;;;16.83;;
1296;SDS011;641;48.492;9.184;2024-01-10T01:58:23;39.42;;;16.20;;
1296;SDS011;641;48.492;9.184;2024-01-10T02:00:49;34.43;;;15.47;;
1296;SDS011;641;48.492;9.184;2024-01-10T02:03:16;39.90;;;17.30;;
1296;SDS011;641;48.492;9.184;2024-01-10T02:05:42;34.00;;;15.90;;
1296;SDS011;641;48.492;9.184;2024-01-10T02:08:08;38.40;;;16.70;;
1296;SDS011;641;48.492;9.184;2024-01-10T02:10:34;36.25;;;16.10;;
1296;SDS011;641;48.492;9.184;2024-01-10T02:13:00;32.40;;;15.73;;
1296;SDS011;641;48.492;9.184;2024-01-10T02:15:26;34.22;;;16.48;;
1296;SDS011;641;48.492;9.184;2024-01-10T02:17:51;31.10;;;14.47;;
1296;SDS011;641;48.492;9.184;2024-01-10T02:20:17;33.40;;;16.20;;
1296;SDS011;641;48.492;9.184;2024-01-10T02:22:43;34.60;;;17.37;;
1296;SDS011;641;48.492;9.184;2024-01-10T02:25:13;36.17;;;15.65;;
1296;SDS011;641;48.492;9.184;2024-01-10T02:27:41;31.83;;;16.67;;
1296;SDS011;641;48.492;9.184;2024-01-10T02:30:08;40.50;;;17.83;;
1296;SDS011;641;48.492;9.184;2024-01-10T02:32:35;35.50;;;15.85;;
1296;SDS011;641;48.492;9.184;2024-01-10T02:35:01;40.30;;;17.13;;
1296;SDS011;641;48.492;9.184;2024-01-10T02:37:27;41.47;;;18.47;;
1296;SDS011;641;48.492;9.184;2024-01-10T02:39:52;36.70;;;15.70;;
1296;SDS011;641;48.492;9.184;2024-01-10T02:42:18;40.53;;;17.03;;
1296;SDS011;641;48.492;9.184;2024-01-10T02:44:43;35.93;;;17.60;;
1296;SDS011;641;48.492;9.184;2024-01-10T02:47:09;37.37;;;16.40;;
1296;SDS011;641;48.492;9.184;2024-01-10T02:49:36;31.45;;;14.70;;
1296;SDS011;641;48.492;9.184;2024-01-10T02:52:01;36.40;;;14.93;;
1296;SDS011;641;48.492;9.184;2024-01-10T02:54:27;34.90;;;14.70;;
1296;SDS011;641;48.492;9.184;2024-01-10T02:56:52;37.33;;;17.37;;
1296;SDS011;641;48.492;9.184;2024-01-10T02:59:18;33.83;;;16.90;;
1296;SDS011;641;48.492;9.184;2024-01-10T03:01:43;30.37;;;13.87;;
1296;SDS011;641;48.492;9.184;2024-01-10T03:04:09;37.30;;;16.20;;
1296;SDS011;641;48.492;9.184;2024-01-10T03:06:35;37.60;;;16.47;;
1296;SDS011;641;48.492;9.184;2024-01-10T03:09:01;35.20;;;17.00;;
1296;SDS011;641;48.492;9.184;2024-01-10T03:11:27;35.75;;;16.45;;
1296;SDS011;641;48.492;9.184;2024-01-10T03:14:03;35.07;;;14.37;;
1296;SDS011;641;48.492;9.184;2024-01-10T03:16:32;34.40;;;14.57;;
1296;SDS011;641;48.492;9.184;2024-01-10T03:18:58;31.23;;;13.80;;
1296;SDS011;641;48.492;9.184;2024-01-10T03:21:24;34.20;;;15.52;;
1296;SDS011;641;48.492;9.184;2024-01-10T03:23:53;33.53;;;16.40;;
1296;SDS011;641;48.492;9.184;2024-01-10T03:26:21;41.30;;;16.65;;
1296;SDS011;641;48.492;9.184;2024-01-10T03:28:47;34.38;;;14.60;;
1296;SDS011;641;48.492;9.184;2024-01-10T03:31:12;34.57;;;16.30;;
1296;SDS011;641;48.492;9.184;2024-01-10T03:33:38;31.90;;;15.10;;
1296;SDS011;641;48.492;9.184;2024-01-10T03:36:04;29.83;;;14.60;;
1296;SDS011;641;48.492;9.184;2024-01-10T03:38:31;34.25;;;15.80;;
1296;SDS011;641;48.492;9.184;2024-01-10T03:40:57;30.20;;;14.57;;
1296;SDS011;641;48.492;9.184;2024-01-10T03:43:22;29.97;;;16.50;;
1296;SDS011;641;48.492;9.184;2024-01-10T03:45:48;31.03;;;15.13;;
1296;SDS011;641;48.492;9.184;2024-01-10T03:48:13;35.10;;;15.20;;
1296;SDS011;641;48.492;9.184;2024-01-10T03:50:39;39.63;;;16.40;;
1296;SDS011;641;48.492;9.184;2024-01-10T03:53:04;27.87;;;13.83;;
1296;SDS011;641;48.492;9.184;2024-01-10T03:55:31;33.80;;;16.33;;
1296;SDS011;641;48.492;9.184;2024-01-10T03:57:56;32.77;;;14.40;;
1296;SDS011;641;48.492;9.184;2024-01-10T04:00:22;35.67;;;15.57;;
1296;SDS011;641;48.492;9.184;2024-01-10T04:02:47;34.83;;;15.77;;
1296;SDS011;641;48.492;9.184;2024-01-10T04:05:13;30.67;;;14.10;;
1296;SDS011;641;48.492;9.184;2024-01-10T04:07:39;39.63;;;15.80;;
1296;SDS011;641;48.492;9.184;2024-01-10T04:10:07;33.17;;;14.10;;
1296;SDS011;641;48.492;9.184;2024-01-10T04:12:35;32.83;;;14.00;;
1296;SDS011;641;48.492;9.184;2024-01-10T04:15:03;37.38;;;16.42;;
1296;SDS011;641;48.492;9.184;2024-01-10T04:17:30;37.35;;;14.90;;
1296;SDS011;641;48.492;9.184;2024-01-10T04:19:55;33.47;;;15.80;;
1296;SDS011;641;48.492;9.184;2024-01-10T04:22:21;43.80;;;21.23;;
1296;SDS011;641;48.492;9.184;2024-01-10T04:24:48;33.70;;;15.70;;
1296;SDS011;641;48.492;9.184;2024-01-10T04:27:14;34.63;;;17.13;;
1296;SDS011;641;48.492;9.184;2024-01-10T04:29:40;31.70;;;16.10;;
1296;SDS011;641;48.492;9.184;2024-01-10T04:32:05;30.90;;;14.43;;
1296;SDS011;641;48.492;9.184;2024-01-10T04:34:31;37.10;;;17.53;;
1296;SDS011;641;48.492;9.184;2024-01-10T04:36:57;31.60;;;14.53;;
1296;SDS011;641;48.492;9.184;2024-01-10T04:39:22;39.10;;;17.23;;
1296;SDS011;641;48.492;9.184;2024-01-10T04:41:48;32.97;;;14.40;;
1296;SDS011;641;48.492;9.184;2024-01-10T04:44:13;38.87;;;16.10;;
1296;SDS011;641;48.492;9.184;2024-01-10T04:46:39;33.20;;;15.40;;
1296;SDS011;641;48.492;9.184;2024-01-10T04:49:06;31.10;;;13.77;;
1296;SDS011;641;48.492;9.184;2024-01-10T04:51:31;37.17;;;15.37;;
1296;SDS011;641;48.492;9.184;2024-01-10T04:53:57;31.40;;;14.50;;
1296;SDS011;641;48.492;9.184;2024-01-10T04:56:23;36.07;;;15.47;;
1296;SDS011;641;48.492;9.184;2024-01-10T04:58:48;35.37;;;15.97;;
1296;SDS011;641;48.492;9.184;2024-01-10T05:01:14;38.47;;;17.57;;
1296;SDS011;641;48.492;9.184;2024-01-10T05:03:40;41.37;;;16.87;;
1296;SDS011;641;48.492;9.184;2024-01-10T05:06:05;31.53;;;15.70;;
1296;SDS011;641;48.492;9.184;2024-01-10T05:08:31;30.80;;;15.80;;
1296;SDS011;641;48.492;9.184;2024-01-10T05:10:56;33.93;;;15.47;;
1296;SDS011;641;48.492;9.184;2024-01-10T05:13:22;38.00;;;15.80;;
1296;SDS011;641;48.492;9.184;2024-01-10T05:15:48;38.17;;;16.57;;
1296;SDS011;641;48.492;9.184;2024-01-10T05:18:13;38.23;;;15.13;;
1296;SDS011;641;48.492;9.184;2024-01-10T05:20:40;32.50;;;14.82;;
1296;SDS011;641;48.492;9.184;2024-01-10T05:23:05;35.53;;;14.97;;
1296;SDS011;641;48.492;9.184;2024-01-10T05:25:31;38.53;;;16.57;;
1296;SDS011;641;48.492;9.184;2024-01-10T05:27:57;35.13;;;16.33;;
1296;SDS011;641;48.492;9.184;2024-01-10T05:30:23;30.17;;;15.07;;
1296;SDS011;641;48.492;9.184;2024-01-10T05:32:49;36.70;;;16.83;;
1296;SDS011;641;48.492;9.184;2024-01-10T05:35:14;39.20;;;15.60;;
1296;SDS011;641;48.492;9.184;2024-01-10T05:37:40;38.60;;;14.17;;
1296;SDS011;641;48.492;9.184;2024-01-10T05:40:06;34.70;;;16.47;;
1296;SDS011;641;48.492;9.184;2024-01-10T05:42:32;37.53;;;14.63;;
1296;SDS011;641;48.492;9.184;2024-01-10T05:44:58;34.00;;;16.07;;
1296;SDS011;641;48.492;9.184;2024-01-10T05:47:24;37.42;;;16.00;;
1296;SDS011;641;48.492;9.184;2024-01-10T05:49:51;33.03;;;15.18;;
1296;SDS011;641;48.492;9.184;2024-01-10T05:52:18;34.88;;;15.95;;
1296;SDS011;641;48.492;9.184;2024-01-10T05:54:44;39.37;;;17.20;;
1296;SDS011;641;48.492;9.184;2024-01-10T05:57:10;34.97;;;14.60;;
1296;SDS011;641;48.492;9.184;2024-01-10T05:59:35;29.90;;;13.23;;
1296;SDS011;641;48.492;9.184;2024-01-10T06:02:02;38.17;;;16.20;;
1296;SDS011;641;48.492;9.184;2024-01-10T06:04:28;33.22;;;16.08;;
1296;SDS011;641;48.492;9.184;2024-01-10T06:06:56;32.53;;;15.95;;
1296;SDS011;641;48.492;9.184;2024-01-10T06:09:23;35.22;;;15.35;;
1296;SDS011;641;48.492;9.184;2024-01-10T06:11:48;35.70;;;15.40;;
1296;SDS011;641;48.492;9.184;2024-01-10T06:14:14;36.00;;;17.77;;
1296;SDS011;641;48.492;9.184;2024-01-10T06:16:40;31.20;;;16.97;;
1296;SDS011;641;48.492;9.184;2024-01-10T06:19:05;33.70;;;17.60;;
1296;SDS011;641;48.492;9.184;2024-01-10T06:21:31;35.87;;;15.90;;
1296;SDS011;641;48.492;9.184;2024-01-10T06:23:57;35.30;;;15.87;;
1296;SDS011;641;48.492;9.184;2024-01-10T06:26:22;33.27;;;16.40;;
1296;SDS011;641;48.492;9.184;2024-01-10T06:28:48;35.60;;;16.60;;
1296;SDS011;641;48.492;9.184;2024-01-10T06:31:13;40.43;;;17.20;;
1296;SDS011;641;48.492;9.184;2024-01-10T06:33:39;31.77;;;15.63;;
1296;SDS011;641;48.492;9.184;2024-01-10T06:36:05;40.97;;;15.57;;
1296;SDS011;641;48.492;9.184;2024-01-10T06:38:30;33.60;;;14.80;;
1296;SDS011;641;48.492;9.184;2024-01-10T06:40:56;28.53;;;13.80;;
1296;SDS011;641;48.492;9.184;2024-01-10T06:43:21;27.23;;;13.53;;
1296;SDS011;641;48.492;9.184;2024-01-10T06:45:47;33.80;;;15.83;;
1296;SDS011;641;48.492;9.184;2024-01-10T06:48:13;34.33;;;15.23;;
1296;SDS011;641;48.492;9.184;2024-01-10T06:50:39;38.90;;;17.38;;
1296;SDS011;641;48.492;9.184;2024-01-10T06:53:05;32.90;;;15.43;;
1296;SDS011;641;48.492;9.184;2024-01-10T06:55:30;37.47;;;16.50;;
1296;SDS011;641;48.492;9.184;2024-01-10T06:57:56;41.87;;;17.30;;
1296;SDS011;641;48.492;9.184;2024-01-10T07:00:22;36.83;;;16.70;;
1296;SDS011;641;48.492;9.184;2024-01-10T07:02:47;34.43;;;14.37;;
1296;SDS011;641;48.492;9.184;2024-01-10T07:05:14;34.20;;;16.50;;
1296;SDS011;641;48.492;9.184;2024-01-10T07:07:40;32.92;;;14.70;;
1296;SDS011;641;48.492;9.184;2024-01-10T07:10:06;33.35;;;14.50;;
1296;SDS011;641;48.492;9.184;2024-01-10T07:12:32;31.97;;;15.80;;
1296;SDS011;641;48.492;9.184;2024-01-10T07:14:59;30.92;;;15.25;;
1296;SDS011;641;48.492;9.184;2024-01-10T07:17:24;33.70;;;14.97;;
1296;SDS011;641;48.492;9.184;2024-01-10T07:19:50;33.00;;;13.50;;
1296;SDS011;641;48.492;9.184;2024-01-10T07:22:15;35.73;;;16.87;;
1296;SDS011;641;48.492;9.184;2024-01-10T07:24:43;41.67;;;15.70;;
1296;SDS011;641;48.492;9.184;2024-01-10T07:27:08;38.67;;;17.43;;
1296;SDS011;641;48.492;9.184;2024-01-10T07:29:34;39.23;;;16.27;;
1296;SDS011;641;48.492;9.184;2024-01-10T07:32:00;40.08;;;17.30;;
1296;SDS011;641;48.492;9.184;2024-01-10T07:34:25;37.37;;;16.20;;
1296;SDS011;641;48.492;9.184;2024-01-10T07:36:51;31.90;;;16.00;;
1296;SDS011;641;48.492;9.184;2024-01-10T07:39:19;33.67;;;16.40;;
1296;SDS011;641;48.492;9.184;2024-01-10T07:41:44;34.30;;;15.63;;
1296;SDS011;641;48.492;9.184;2024-01-10T07:44:10;39.50;;;16.90;;
1296;SDS011;641;48.492;9.184;2024-01-10T07:46:37;35.90;;;17.30;;
1296;SDS011;641;48.492;9.184;2024-01-10T07:49:03;43.67;;;16.80;;
1296;SDS011;641;48.492;9.184;2024-01-10T07:51:30;33.05;;;14.93;;
1296;SDS011;641;48.492;9.184;2024-01-10T07:53:55;32.60;;;15.33;;
1296;SDS011;641;48.492;9.184;2024-01-10T07:56:21;44.73;;;15.33;;
1296;SDS011;641;48.492;9.184;2024-01-10T07:58:47;39.57;;;17.70;;
1296;SDS011;641;48.492;9.184;2024-01-10T08:01:14;34.75;;;16.75;;
1296;SDS011;641;48.492;9.184;2024-01-10T08:03:40;35.90;;;15.20;;
1296;SDS011;641;48.492;9.184;2024-01-10T08:06:06;37.70;;;17.67;;
1296;SDS011;641;48.492;9.184;2024-01-10T08:08:31;34.43;;;16.57;;
1296;SDS011;641;48.492;9.184;2024-01-10T08:10:57;33.53;;;15.43;;
1296;SDS011;641;48.492;9.184;2024-01-10T08:13:22;31.27;;;16.33;;
1296;SDS011;641;48.492;9.184;2024-01-10T08:15:48;32.43;;;15.87;;
1296;SDS011;641;48.492;9.184;2024-01-10T08:18:14;36.23;;;15.07;;
1296;SDS011;641;48.492;9.184;2024-01-10T08:20:39;33.23;;;15.30;;
1296;SDS011;641;48.492;9.184;2024-01-10T08:23:05;36.73;;;15.07;;
1296;SDS011;641;48.492;9.184;2024-01-10T08:25:31;32.63;;;15.10;;
1296;SDS011;641;48.492;9.184;2024-01-10T08:27:56;31.10;;;15.67;;
1296;SDS011;641;48.492;9.184;2024-01-10T08:30:23;35.80;;;16.20;;
1296;SDS011;641;48.492;9.184;2024-01-10T08:32:49;40.03;;;17.17;;
1296;SDS011;641;48.492;9.184;2024-01-10T08:35:14;34.20;;;16.73;;
1296;SDS011;641;48.492;9.184;2024-01-10T08:37:40;40.27;;;17.20;;
1296;SDS011;641;48.492;9.184;2024-01-10T08:40:10;39.83;;;16.63;;
1296;SDS011;641;48.492;9.184;2024-01-10T08:42:37;34.38;;;16.02;;
1296;SDS011;641;48.492;9.184;2024-01-10T08:45:03;39.97;;;17.27;;
1296;SDS011;641;48.492;9.184;2024-01-10T08:47:29;38.72;;;17.50;;
1296;SDS011;641;48.492;9.184;2024-01-10T08:49:57;39.58;;;18.60;;
1296;SDS011;641;48.492;9.184;2024-01-10T08:52:23;36.20;;;17.55;;
1296;SDS011;641;48.492;9.184;2024-01-10T08:54:49;36.60;;;17.80;;
1296;SDS011;641;48.492;9.184;2024-01-10T08:57:15;39.83;;;17.50;;
1296;SDS011;641;48.492;9.184;2024-01-10T08:59:43;43.33;;;16.10;;
1296;SDS011;641;48.492;9.184;2024-01-10T09:02:09;41.45;;;19.08;;
1296;SDS011;641;48.492;9.184;2024-01-10T09:04:35;46.75;;;20.02;;
1296;SDS011;641;48.492;9.184;2024-01-10T09:07:01;40.90;;;19.97;;
1296;SDS011;641;48.492;9.184;2024-01-10T09:09:26;37.50;;;15.83;;
1296;SDS011;641;48.492;9.184;2024-01-10T09:11:52;45.72;;;18.48;;
1296;SDS011;641;48.492;9.184;2024-01-10T09:14:18;37.33;;;16.97;;
1296;SDS011;641;48.492;9.184;2024-01-10T09:16:44;33.63;;;17.45;;
1296;SDS011;641;48.492;9.184;2024-01-10T09:19:10;41.07;;;16.43;;
1296;SDS011;641;48.492;9.184;2024-01-10T09:21:35;45.50;;;22.67;;
1296;SDS011;641;48.492;9.184;2024-01-10T09:24:01;38.35;;;19.70;;
1296;SDS011;641;48.492;9.184;2024-01-10T09:26:30;33.97;;;18.90;;
1296;SDS011;641;48.492;9.184;2024-01-10T09:28:56;38.80;;;19.17;;
1296;SDS011;641;48.492;9.184;2024-01-10T09:31:21;45.23;;;18.67;;
1296;SDS011;641;48.492;9.184;2024-01-10T09:33:47;44.73;;;18.10;;
1296;SDS011;641;48.492;9.184;2024-01-10T09:36:12;33.83;;;17.40;;
1296;SDS011;641;48.492;9.184;2024-01-10T09:38:39;81.43;;;32.92;;
1296;SDS011;641;48.492;9.184;2024-01-10T09:41:05;39.00;;;21.90;;
1296;SDS011;641;48.492;9.184;2024-01-10T09:43:31;40.93;;;16.53;;
1296;SDS011;641;48.492;9.184;2024-01-10T09:46:00;40.72;;;18.75;;
1296;SDS011;641;48.492;9.184;2024-01-10T09:48:27;40.67;;;21.08;;
1296;SDS011;641;48.492;9.184;2024-01-10T09:50:54;39.88;;;18.98;;
1296;SDS011;641;48.492;9.184;2024-01-10T09:53:24;40.25;;;18.25;;
1296;SDS011;641;48.492;9.184;2024-01-10T09:55:57;44.38;;;20.90;;
1296;SDS011;641;48.492;9.184;2024-01-10T09:58:25;43.38;;;20.63;;
1296;SDS011;641;48.492;9.184;2024-01-10T10:00:51;41.28;;;19.15;;
1296;SDS011;641;48.492;9.184;2024-01-10T10:03:16;46.90;;;22.17;;
1296;SDS011;641;48.492;9.184;2024-01-10T10:05:43;44.10;;;21.77;;
1296;SDS011;641;48.492;9.184;2024-01-10T10:08:13;42.08;;;20.63;;
1296;SDS011;641;48.492;9.184;2024-01-10T10:10:50;48.25;;;19.23;;
1296;SDS011;641;48.492;9.184;2024-01-10T10:13:25;43.03;;;20.08;;
1296;SDS011;641;48.492;9.184;2024-01-10T10:16:02;44.28;;;21.88;;
1296;SDS011;641;48.492;9.184;2024-01-10T10:18:31;39.40;;;19.00;;
1296;SDS011;641;48.492;9.184;2024-01-10T10:23:32;40.38;;;18.83;;
1296;SDS011;641;48.492;9.184;2024-01-10T10:25:58;42.63;;;20.93;;
1296;SDS011;641;48.492;9.184;2024-01-10T10:28:30;40.95;;;22.30;;
1296;SDS011;641;48.492;9.184;2024-01-10T10:30:56;45.40;;;21.42;;
1296;SDS011;641;48.492;9.184;2024-01-10T10:33:22;39.10;;;22.43;;
1296;SDS011;641;48.492;9.184;2024-01-10T10:35:49;41.73;;;21.63;;
1296;SDS011;641;48.492;9.184;2024-01-10T10:38:15;40.05;;;19.25;;
1296;SDS011;641;48.492;9.184;2024-01-10T10:40:41;42.93;;;21.50;;
1296;SDS011;641;48.492;9.184;2024-01-10T10:43:06;44.67;;;21.00;;
1296;SDS011;641;48.492;9.184;2024-01-10T10:45:38;42.42;;;21.77;;
1296;SDS011;641;48.492;9.184;2024-01-10T10:48:05;48.53;;;21.00;;
1296;SDS011;641;48.492;9.184;2024-01-10T10:50:34;37.40;;;20.35;;
1296;SDS011;641;48.492;9.184;2024-01-10T10:53:02;44.92;;;20.33;;
1296;SDS011;641;48.492;9.184;2024-01-10T10:55:28;47.13;;;22.50;;
1296;SDS011;641;48.492;9.184;2024-01-10T10:57:55;47.90;;;23.55;;
1296;SDS011;641;48.492;9.184;2024-01-10T11:00:21;48.78;;;21.00;;
1296;SDS011;641;48.492;9.184;2024-01-10T11:02:52;36.42;;;18.10;;
1296;SDS011;641;48.492;9.184;2024-01-10T11:05:18;39.65;;;20.20;;
1296;SDS011;641;48.492;9.184;2024-01-10T11:07:45;43.35;;;19.85;;
1296;SDS011;641;48.492;9.184;2024-01-10T11:10:12;45.90;;;24.03;;
1296;SDS011;641;48.492;9.184;2024-01-10T11:15:17;43.33;;;21.90;;
1296;SDS011;641;48.492;9.184;2024-01-10T11:21:06;41.72;;;21.10;;
1296;SDS011;641;48.492;9.184;2024-01-10T11:23:46;38.28;;;21.73;;
1296;SDS011;641;48.492;9.184;2024-01-10T11:26:14;46.05;;;23.40;;
1296;SDS011;641;48.492;9.184;2024-01-10T11:28:41;44.00;;;22.00;;
1296;SDS011;641;48.492;9.184;2024-01-10T11:31:07;42.47;;;22.03;;
1296;SDS011;641;48.492;9.184;2024-01-10T11:33:34;41.08;;;18.83;;
1296;SDS011;641;48.492;9.184;2024-01-10T11:36:18;43.90;;;19.92;;
1296;SDS011;641;48.492;9.184;2024-01-10T11:38:48;41.33;;;22.73;;
1296;SDS011;641;48.492;9.184;2024-01-10T11:46:38;40.33;;;19.35;;
1296;SDS011;641;48.492;9.184;2024-01-10T11:49:07;44.22;;;22.17;;
1296;SDS011;641;48.492;9.184;2024-01-10T11:51:37;45.10;;;23.13;;
1296;SDS011;641;48.492;9.184;2024-01-10T11:54:03;45.42;;;23.23;;
1296;SDS011;641;48.492;9.184;2024-01-10T11:56:47;41.73;;;22.60;;
1296;SDS011;641;48.492;9.184;2024-01-10T11:59:13;47.08;;;21.35;;
1296;SDS011;641;48.492;9.184;2024-01-10T12:01:42;43.28;;;20.88;;
1296;SDS011;641;48.492;9.184;2024-01-10T12:04:07;47.42;;;20.30;;
1296;SDS011;641;48.492;9.184;2024-01-10T12:06:34;47.90;;;23.20;;
1296;SDS011;641;48.492;9.184;2024-01-10T12:09:01;41.60;;;20.13;;
1296;SDS011;641;48.492;9.184;2024-01-10T12:11:34;39.97;;;19.98;;
1296;SDS011;641;48.492;9.184;2024-01-10T12:14:00;36.65;;;19.90;;
1296;SDS011;641;48.492;9.184;2024-01-10T12:16:28;39.47;;;19.67;;
1296;SDS011;641;48.492;9.184;2024-01-10T12:18:54;49.23;;;22.87;;
1296;SDS011;641;48.492;9.184;2024-01-10T12:21:20;40.33;;;20.70;;
1296;SDS011;641;48.492;9.184;2024-01-10T12:23:46;44.22;;;21.83;;
1296;SDS011;641;48.492;9.184;2024-01-10T12:26:13;45.60;;;22.45;;
1296;SDS011;641;48.492;9.184;2024-01-10T12:28:39;49.73;;;23.70;;
1296;SDS011;641;48.492;9.184;2024-01-10T12:31:05;45.08;;;22.83;;
1296;SDS011;641;48.492;9.184;2024-01-10T12:33:37;43.05;;;22.48;;
1296;SDS011;641;48.492;9.184;2024-01-10T12:36:08;46.33;;;21.80;;
1296;SDS011;641;48.492;9.184;2024-01-10T12:38:40;42.53;;;22.42;;
1296;SDS011;641;48.492;9.184;2024-01-10T12:41:06;42.22;;;20.02;;
1296;SDS011;641;48.492;9.184;2024-01-10T12:43:33;43.17;;;23.13;;
1296;SDS011;641;48.492;9.184;2024-01-10T12:46:06;47.95;;;23.17;;
1296;SDS011;641;48.492;9.184;2024-01-10T12:48:33;45.03;;;23.17;;
1296;SDS011;641;48.492;9.184;2024-01-10T12:51:05;42.20;;;20.15;;
1296;SDS011;641;48.492;9.184;2024-01-10T12:53:42;42.20;;;21.30;;
1296;SDS011;641;48.492;9.184;2024-01-10T12:56:09;39.42;;;20.30;;
1296;SDS011;641;48.492;9.184;2024-01-10T12:58:39;44.45;;;21.13;;
1296;SDS011;641;48.492;9.184;2024-01-10T13:01:06;58.13;;;21.27;;
1296;SDS011;641;48.492;9.184;2024-01-10T13:03:33;47.78;;;22.23;;
1296;SDS011;641;48.492;9.184;2024-01-10T13:05:59;43.30;;;20.67;;
1296;SDS011;641;48.492;9.184;2024-01-10T13:08:25;44.47;;;21.97;;
1296;SDS011;641;48.492;9.184;2024-01-10T13:10:51;38.80;;;21.07;;
1296;SDS011;641;48.492;9.184;2024-01-10T13:13:16;40.43;;;19.00;;
1296;SDS011;641;48.492;9.184;2024-01-10T13:15:44;45.80;;;22.50;;
1296;SDS011;641;48.492;9.184;2024-01-10T13:18:12;41.00;;;20.35;;
1296;SDS011;641;48.492;9.184;2024-01-10T13:20:39;48.45;;;23.30;;
1296;SDS011;641;48.492;9.184;2024-01-10T13:23:05;42.30;;;22.20;;
1296;SDS011;641;48.492;9.184;2024-01-10T13:25:30;44.23;;;21.70;;
1296;SDS011;641;48.492;9.184;2024-01-10T13:27:56;51.00;;;21.93;;
1296;SDS011;641;48.492;9.184;2024-01-10T13:30:25;50.45;;;22.65;;
1296;SDS011;641;48.492;9.184;2024-01-10T13:32:51;41.30;;;20.70;;
1296;SDS011;641;48.492;9.184;2024-01-10T13:35:17;44.23;;;21.83;;
1296;SDS011;641;48.492;9.184;2024-01-10T13:37:43;41.63;;;22.30;;
1296;SDS011;641;48.492;9.184;2024-01-10T13:40:09;46.67;;;21.90;;
1296;SDS011;641;48.492;9.184;2024-01-10T13:42:38;38.40;;;21.10;;
1296;SDS011;641;48.492;9.184;2024-01-10T13:45:07;49.50;;;20.97;;
1296;SDS011;641;48.492;9.184;2024-01-10T13:47:35;42.40;;;21.30;;
1296;SDS011;641;48.492;9.184;2024-01-10T13:50:02;47.43;;;21.60;;
1296;SDS011;641;48.492;9.184;2024-01-10T13:52:28;37.03;;;18.10;;
1296;SDS011;641;48.492;9.184;2024-01-10T13:54:54;39.93;;;20.40;;
1296;SDS011;641;48.492;9.184;2024-01-10T13:57:21;44.60;;;20.67;;
1296;SDS011;641;48.492;9.184;2024-01-10T13:59:46;39.13;;;19.27;;
1296;SDS011;641;48.492;9.184;2024-01-10T14:02:12;37.33;;;19.60;;
1296;SDS011;641;48.492;9.184;2024-01-10T14:04:39;37.17;;;18.90;;
1296;SDS011;641;48.492;9.184;2024-01-10T14:07:04;43.50;;;20.67;;
1296;SDS011;641;48.492;9.184;2024-01-10T14:09:30;43.90;;;22.30;;
1296;SDS011;641;48.492;9.184;2024-01-10T14:11:56;36.60;;;19.93;;
1296;SDS011;641;48.492;9.184;2024-01-10T14:14:22;57.43;;;21.03;;
1296;SDS011;641;48.492;9.184;2024-01-10T14:16:48;40.43;;;19.20;;
1296;SDS011;641;48.492;9.184;2024-01-10T14:19:14;37.30;;;18.93;;
1296;SDS011;641;48.492;9.184;2024-01-10T14:21:42;41.43;;;20.47;;
1296;SDS011;641;48.492;9.184;2024-01-10T14:24:07;43.10;;;21.27;;
1296;SDS011;641;48.492;9.184;2024-01-10T14:26:33;42.00;;;20.07;;
1296;SDS011;641;48.492;9.184;2024-01-10T14:28:58;42.53;;;19.77;;
1296;SDS011;641;48.492;9.184;2024-01-10T14:31:24;42.13;;;19.27;;
1296;SDS011;641;48.492;9.184;2024-01-10T14:33:50;36.43;;;20.40;;
1296;SDS011;641;48.492;9.184;2024-01-10T14:36:15;38.40;;;19.40;;
1296;SDS011;641;48.492;9.184;2024-01-10T14:38:41;40.37;;;20.00;;
1296;SDS011;641;48.492;9.184;2024-01-10T14:41:07;35.43;;;18.60;;
1296;SDS011;641;48.492;9.184;2024-01-10T14:43:33;40.37;;;20.33;;
1296;SDS011;641;48.492;9.184;2024-01-10T14:46:01;40.70;;;21.90;;
1296;SDS011;641;48.492;9.184;2024-01-10T14:48:27;40.37;;;18.40;;
1296;SDS011;641;48.492;9.184;2024-01-10T14:50:53;44.50;;;20.37;;
1296;SDS011;641;48.492;9.184;2024-01-10T14:53:18;44.00;;;23.77;;
1296;SDS011;641;48.492;9.184;2024-01-10T14:55:44;50.27;;;23.67;;
1296;SDS011;641;48.492;9.184;2024-01-10T14:58:09;37.73;;;20.23;;
1296;SDS011;641;48.492;9.184;2024-01-10T15:00:35;41.63;;;21.90;;
1296;SDS011;641;48.492;9.184;2024-01-10T15:03:01;35.80;;;21.10;;
1296;SDS011;641;48.492;9.184;2024-01-10T15:05:29;41.40;;;21.47;;
1296;SDS011;641;48.492;9.184;2024-01-10T15:07:54;50.20;;;23.10;;
1296;SDS011;641;48.492;9.184;2024-01-10T15:10:20;41.17;;;20.17;;